createdAt,value
2019-01-28T00:03:18.889Z,95485.00
2019-01-28T00:07:33.532Z,95486.00
2019-01-28T00:11:47.937Z,95481.00
2019-01-28T00:16:02.602Z,95486.00
2019-01-28T00:20:17.281Z,95486.00
2019-01-28T00:24:31.883Z,95491.00
2019-01-28T00:28:46.250Z,95493.00
2019-01-28T00:32:59.991Z,95489.00
2019-01-28T00:37:14.527Z,95491.00
2019-01-28T00:41:29.321Z,95494.00
2019-01-28T00:45:43.996Z,95497.00
2019-01-28T00:49:58.121Z,95495.00
2019-01-28T00:54:12.690Z,95489.00
2019-01-28T00:58:27.453Z,95491.00
2019-01-28T01:02:41.912Z,95489.00
2019-01-28T01:06:56.498Z,95504.00
2019-01-28T01:11:10.888Z,95493.00
2019-01-28T01:15:26.558Z,95490.00
2019-01-28T01:19:41.310Z,95494.00
2019-01-28T01:23:55.705Z,95480.00
2019-01-28T01:28:10.467Z,95503.00
2019-01-28T01:32:25.037Z,95508.00
2019-01-28T01:36:39.696Z,95512.00
2019-01-28T01:40:54.324Z,95518.00
2019-01-28T01:45:08.690Z,95517.00
2019-01-28T01:49:25.272Z,95509.00
2019-01-28T01:53:40.153Z,95502.00
2019-01-28T01:57:54.355Z,95496.00
2019-01-28T02:02:08.847Z,95495.00
2019-01-28T02:06:23.440Z,95497.00
2019-01-28T02:10:24.345Z,95499.00
2019-01-28T02:14:45.181Z,95491.00
2019-01-28T02:19:06.037Z,95479.00
2019-01-28T02:23:07.209Z,95490.00
2019-01-28T02:27:28.045Z,95489.00
2019-01-28T02:31:48.901Z,95483.00
2019-01-28T02:36:05.932Z,95484.00
2019-01-28T02:40:20.381Z,95485.00
2019-01-28T02:44:34.772Z,95477.00
2019-01-28T02:48:49.503Z,95484.00
2019-01-28T02:53:03.705Z,95459.00
2019-01-28T02:57:18.429Z,95483.00
2019-01-28T03:01:32.562Z,95471.00
2019-01-28T03:05:46.989Z,95471.00
2019-01-28T03:10:02.424Z,95473.00
2019-01-28T03:14:16.382Z,95471.00
2019-01-28T03:18:31.032Z,95454.00
2019-01-28T03:22:45.705Z,95469.00
2019-01-28T03:27:00.191Z,95463.00
2019-01-28T03:31:15.915Z,95449.00
2019-01-28T03:35:30.441Z,95449.00
2019-01-28T03:39:44.996Z,95466.00
2019-01-28T03:43:59.764Z,95449.00
2019-01-28T03:48:14.436Z,95446.00
2019-01-28T03:52:29.294Z,95438.00
2019-01-28T03:56:46.756Z,95440.00
2019-01-28T04:01:01.006Z,95442.00
2019-01-28T04:05:15.464Z,95439.00
2019-01-28T04:09:30.125Z,95434.00
2019-01-28T04:13:44.653Z,95434.00
2019-01-28T04:17:59.345Z,95420.00
2019-01-28T04:22:13.826Z,95427.00
2019-01-28T04:26:27.743Z,95424.00
2019-01-28T04:30:42.527Z,95415.00
2019-01-28T04:34:57.139Z,95408.00
2019-01-28T04:39:12.306Z,95408.00
2019-01-28T04:43:26.906Z,95391.00
2019-01-28T04:47:41.363Z,95390.00
2019-01-28T04:51:56.224Z,95391.00
2019-01-28T04:56:10.867Z,95383.00
2019-01-28T05:00:25.590Z,95378.00
2019-01-28T05:04:40.314Z,95375.00
2019-01-28T05:08:54.707Z,95351.00
2019-01-28T05:12:55.856Z,95356.00
2019-01-28T05:17:13.213Z,95340.00
2019-01-28T05:21:31.896Z,95357.00
2019-01-28T05:25:46.134Z,95348.00
2019-01-28T05:30:00.560Z,95337.00
2019-01-28T05:34:14.963Z,95342.00
2019-01-28T05:38:29.599Z,95331.00
2019-01-28T05:42:43.411Z,95319.00
2019-01-28T05:46:57.922Z,95323.00
2019-01-28T05:51:12.403Z,95317.00
2019-01-28T05:55:27.089Z,95319.00
2019-01-28T05:59:40.879Z,95321.00
2019-01-28T06:03:54.917Z,95326.00
2019-01-28T06:07:55.942Z,95328.00
2019-01-28T06:12:16.780Z,95320.00
2019-01-28T06:16:31.345Z,95320.00
2019-01-28T06:20:46.226Z,95318.00
2019-01-28T06:25:00.648Z,95314.00
2019-01-28T06:29:15.292Z,95304.00
2019-01-28T06:33:29.609Z,95307.00
2019-01-28T06:37:43.422Z,95300.00
2019-01-28T06:41:57.403Z,95318.00
2019-01-28T06:46:11.990Z,95308.00
2019-01-28T06:50:25.833Z,95311.00
2019-01-28T06:54:40.387Z,95319.00
2019-01-28T06:58:55.112Z,95320.00
2019-01-28T07:03:09.717Z,95322.00
2019-01-28T07:07:24.277Z,95327.00
2019-01-28T07:11:25.274Z,95331.00
2019-01-28T07:15:40.039Z,95326.00
2019-01-28T07:19:54.611Z,95324.00
2019-01-28T07:24:09.313Z,95327.00
2019-01-28T07:28:23.768Z,95326.00
2019-01-28T07:32:38.212Z,95324.00
2019-01-28T07:36:52.716Z,95322.00
2019-01-28T07:41:07.062Z,95326.00
2019-01-28T07:45:21.555Z,95330.00
2019-01-28T07:49:36.135Z,95335.00
2019-01-28T07:53:50.838Z,95327.00
2019-01-28T07:58:08.161Z,95337.00
2019-01-28T08:02:22.693Z,95330.00
2019-01-28T08:06:37.391Z,95335.00
2019-01-28T08:10:51.832Z,95343.00
2019-01-28T08:15:06.401Z,95340.00
2019-01-28T08:19:20.783Z,95342.00
2019-01-28T08:23:35.192Z,95347.00
2019-01-28T08:27:49.848Z,95347.00
2019-01-28T08:32:04.507Z,95345.00
2019-01-28T08:36:05.638Z,95333.00
2019-01-28T08:40:26.584Z,95349.00
2019-01-28T08:44:47.414Z,95334.00
2019-01-28T08:49:08.505Z,95346.00
2019-01-28T08:53:29.453Z,95348.00
2019-01-28T08:57:50.184Z,95351.00
2019-01-28T09:02:10.998Z,95352.00
2019-01-28T09:06:11.989Z,95350.00
2019-01-28T09:10:32.908Z,95349.00
2019-01-28T09:14:34.168Z,95344.00
2019-01-28T09:18:49.196Z,95349.00
2019-01-28T09:23:03.653Z,95359.00
2019-01-28T09:27:18.288Z,95356.00
2019-01-28T09:31:19.253Z,95353.00
2019-01-28T09:35:40.087Z,95351.00
2019-01-28T09:39:40.989Z,95272.00
2019-01-28T09:44:01.817Z,95355.00
2019-01-28T09:48:44.328Z,95364.00
2019-01-28T09:53:05.277Z,95376.00
2019-01-28T09:57:26.133Z,95389.00
2019-01-28T10:01:46.977Z,95384.00
2019-01-28T10:06:07.840Z,95387.00
2019-01-28T10:10:28.690Z,95390.00
2019-01-28T10:14:49.427Z,95404.00
2019-01-28T10:19:03.346Z,95402.00
2019-01-28T10:23:17.929Z,95402.00
2019-01-28T10:27:32.673Z,95394.00
2019-01-28T10:31:46.627Z,95399.00
2019-01-28T10:35:47.786Z,95417.00
2019-01-28T10:40:32.507Z,95421.00
2019-01-28T10:44:53.320Z,95412.00
2019-01-28T10:49:14.173Z,95421.00
2019-01-28T10:53:35.030Z,95430.00
2019-01-28T10:57:56.026Z,95424.00
2019-01-28T11:02:16.876Z,95428.00
2019-01-28T11:06:37.720Z,95432.00
2019-01-28T11:10:58.651Z,95430.00
2019-01-28T11:15:41.182Z,95431.00
2019-01-28T11:19:55.613Z,95434.00
2019-01-28T11:24:10.249Z,95435.00
2019-01-28T11:28:24.901Z,95432.00
2019-01-28T11:32:39.140Z,95440.00
2019-01-28T11:36:53.733Z,95436.00
2019-01-28T11:41:08.255Z,95441.00
2019-01-28T11:45:24.196Z,95452.00
2019-01-28T11:49:38.603Z,95441.00
2019-01-28T11:53:53.117Z,95448.00
2019-01-28T11:58:07.565Z,95444.00
2019-01-28T12:02:22.066Z,95451.00
2019-01-28T12:06:36.661Z,95448.00
2019-01-28T12:10:51.259Z,95466.00
2019-01-28T12:15:06.061Z,95469.00
2019-01-28T12:19:20.482Z,95481.00
2019-01-28T12:23:35.024Z,95476.00
2019-01-28T12:27:49.175Z,95501.00
2019-01-28T12:32:03.703Z,95505.00
2019-01-28T12:36:04.911Z,95496.00
2019-01-28T12:40:25.770Z,95515.00
2019-01-28T12:44:46.621Z,95502.00
2019-01-28T12:49:07.382Z,95528.00
2019-01-28T12:53:28.164Z,95527.00
2019-01-28T12:57:49.216Z,95533.00
2019-01-28T13:02:10.269Z,95553.00
2019-01-28T13:06:11.272Z,95556.00
2019-01-28T13:10:32.172Z,95559.00
2019-01-28T13:14:53.117Z,95573.00
2019-01-28T13:19:07.780Z,95574.00
2019-01-28T13:23:22.592Z,95571.00
2019-01-28T13:27:37.441Z,95577.00
2019-01-28T13:31:51.935Z,95583.00
2019-01-28T13:36:09.380Z,95598.00
2019-01-28T13:40:22.965Z,95597.00
2019-01-28T13:44:38.331Z,95599.00
2019-01-28T13:48:52.200Z,95611.00
2019-01-28T13:53:06.922Z,95608.00
2019-01-28T13:57:21.359Z,95609.00
2019-01-28T14:01:35.727Z,95618.00
2019-01-28T14:05:49.880Z,95634.00
2019-01-28T14:10:03.638Z,95629.00
2019-01-28T14:14:05.123Z,95650.00
2019-01-28T14:18:19.324Z,95649.00
2019-01-28T14:22:34.906Z,95643.00
2019-01-28T14:26:49.335Z,95659.00
2019-01-28T14:31:04.018Z,95657.00
2019-01-28T14:35:46.739Z,95682.00
2019-01-28T14:39:49.119Z,95694.00
2019-01-28T14:44:10.536Z,95679.00
2019-01-28T14:48:12.205Z,95707.00
2019-01-28T14:52:33.111Z,95723.00
2019-01-28T14:56:53.991Z,95721.00
2019-01-28T15:01:14.832Z,95730.00
2019-01-28T15:05:35.717Z,95733.00
2019-01-28T15:09:56.568Z,95736.00
2019-01-28T15:13:57.458Z,95745.00
2019-01-28T15:18:11.591Z,95750.00
2019-01-28T15:22:12.800Z,95758.00
2019-01-28T15:26:33.913Z,95759.00
2019-01-28T15:30:54.856Z,95766.00
2019-01-28T15:35:15.705Z,95778.00
2019-01-28T15:39:36.570Z,95800.00
2019-01-28T15:43:57.419Z,95799.00
2019-01-28T15:48:18.294Z,95815.00
2019-01-28T15:52:39.224Z,95819.00
2019-01-28T15:57:00.104Z,95817.00
2019-01-28T16:01:20.981Z,95847.00
2019-01-28T16:05:41.819Z,95843.00
2019-01-28T16:10:24.338Z,95858.00
2019-01-28T16:15:06.004Z,95869.00
2019-01-28T16:19:20.292Z,95881.00
2019-01-28T16:23:34.975Z,95890.00
2019-01-28T16:27:49.740Z,95892.00
2019-01-28T16:32:04.069Z,95901.00
2019-01-28T16:36:18.431Z,95916.00
2019-01-28T16:40:33.262Z,95917.00
2019-01-28T16:44:47.713Z,95936.00
2019-01-28T16:49:02.206Z,95937.00
2019-01-28T16:53:16.714Z,95945.00
2019-01-28T16:57:31.483Z,95966.00
2019-01-28T17:01:46.048Z,95983.00
2019-01-28T17:06:00.589Z,95972.00
2019-01-28T17:10:15.345Z,95997.00
2019-01-28T17:14:29.688Z,95993.00
2019-01-28T17:18:43.590Z,96001.00
2019-01-28T17:22:58.149Z,96014.00
2019-01-28T17:27:12.807Z,96026.00
2019-01-28T17:31:27.352Z,96036.00
2019-01-28T17:35:42.013Z,96053.00
2019-01-28T17:39:56.984Z,96058.00
2019-01-28T17:44:11.169Z,96072.00
2019-01-28T17:48:25.637Z,96078.00
2019-01-28T17:52:39.927Z,96082.00
2019-01-28T17:56:53.837Z,96087.00
2019-01-28T18:01:08.234Z,96087.00
2019-01-28T18:05:22.623Z,96090.00
2019-01-28T18:09:37.163Z,96107.00
2019-01-28T18:13:51.889Z,96105.00
2019-01-28T18:18:06.292Z,96118.00
2019-01-28T18:22:21.032Z,96133.00
2019-01-28T18:26:38.014Z,96143.00
2019-01-28T18:30:52.744Z,96148.00
2019-01-28T18:35:07.656Z,96157.00
2019-01-28T18:39:21.920Z,96154.00
2019-01-28T18:43:36.700Z,96173.00
2019-01-28T18:47:51.318Z,96182.00
2019-01-28T18:52:05.894Z,96204.00
2019-01-28T18:56:48.505Z,96213.00
2019-01-28T19:01:09.337Z,96222.00
2019-01-28T19:05:52.159Z,96240.00
2019-01-28T19:15:02.077Z,96259.00
2019-01-28T19:19:42.733Z,96272.00
2019-01-28T19:24:03.588Z,96297.00
2019-01-28T19:28:26.469Z,96294.00
2019-01-28T19:32:47.444Z,96309.00
2019-01-28T19:37:08.287Z,96315.00
2019-01-28T19:41:22.335Z,96334.00
2019-01-28T19:45:37.098Z,96328.00
2019-01-28T19:49:52.588Z,96334.00
2019-01-28T19:54:06.841Z,96341.00
2019-01-28T19:58:21.528Z,96347.00
2019-01-28T20:02:36.001Z,96356.00
2019-01-28T20:06:37.124Z,96361.00
2019-01-28T20:10:38.017Z,96363.00
2019-01-28T20:14:58.951Z,96348.00
2019-01-28T20:19:19.788Z,96371.00
2019-01-28T20:23:40.618Z,96375.00
2019-01-28T20:28:01.599Z,96381.00
2019-01-28T20:32:22.553Z,96386.00
2019-01-28T20:36:43.457Z,96391.00
2019-01-28T20:40:57.633Z,96405.00
2019-01-28T20:45:12.358Z,96401.00
2019-01-28T20:49:27.257Z,96412.00
2019-01-28T20:53:44.522Z,96417.00
2019-01-28T20:57:45.647Z,96427.00
2019-01-28T21:02:06.530Z,96446.00
2019-01-28T21:06:27.385Z,96447.00
2019-01-28T21:10:48.293Z,96462.00
2019-01-28T21:15:28.987Z,96468.00
2019-01-28T21:19:42.930Z,96478.00
2019-01-28T21:23:57.431Z,96479.00
2019-01-28T21:27:58.543Z,96486.00
2019-01-28T21:32:19.303Z,96491.00
2019-01-28T21:36:40.171Z,96496.00
2019-01-28T21:41:01.173Z,96499.00
2019-01-28T21:45:22.307Z,96513.00
2019-01-28T21:49:43.205Z,96513.00
2019-01-28T21:53:44.121Z,96522.00
2019-01-28T21:58:04.986Z,96536.00
2019-01-28T22:02:25.938Z,96528.00
2019-01-28T22:06:46.731Z,96532.00
2019-01-28T22:11:07.696Z,96538.00
2019-01-28T22:15:50.217Z,96556.00
2019-01-28T22:20:04.521Z,96560.00
2019-01-28T22:24:19.599Z,96562.00
2019-01-28T22:28:34.438Z,96577.00
2019-01-28T22:32:48.689Z,96580.00
2019-01-28T22:37:03.426Z,96584.00
2019-01-28T22:41:18.007Z,96591.00
2019-01-28T22:45:34.391Z,96585.00
2019-01-28T22:49:49.400Z,96593.00
2019-01-28T22:54:03.477Z,96594.00
2019-01-28T22:58:21.032Z,96605.00
2019-01-28T23:02:35.395Z,96607.00
2019-01-28T23:06:50.100Z,96598.00
2019-01-28T23:11:04.716Z,96609.00
2019-01-28T23:15:18.418Z,96617.00
2019-01-28T23:19:33.096Z,96614.00
2019-01-28T23:23:47.632Z,96623.00
2019-01-28T23:28:02.304Z,96627.00
2019-01-28T23:32:19.220Z,96623.00
2019-01-28T23:36:33.698Z,96622.00
2019-01-28T23:40:48.448Z,96630.00
2019-01-28T23:45:03.347Z,96644.00
2019-01-28T23:49:17.821Z,96647.00
2019-01-28T23:53:33.366Z,96654.00
2019-01-28T23:57:34.454Z,96656.00
